Time;durP1;ratioP1;P1;durP2;ratioP2;P2;SDS_P1;SDS_P2;PMS_P1;PMS_P2;Temp;Humidity;BMP_temperature;BMP_pressure;BME280_temperature;BME280_humidity;BME280_pressure;Samples;Min_cycle;Max_cycle;Signal;HPM_P1;HPM_P2
2022/03/13 00:00:21;;;;;;;17.98;10.95;;;8.30;99.90;;;;;;5054215;28;20055;-62
2022/03/13 00:02:47;;;;;;;17.02;11.27;;;;;;;;;;5054406;28;20170;-62
2022/03/13 00:05:16;;;;;;;18.42;12.38;;;;;;;;;;5035113;28;20120;-62
2022/03/13 00:07:43;;;;;;;17.05;11.35;;;7.90;99.90;;;;;;5036123;28;20055;-62
2022/03/13 00:10:08;;;;;;;16.05;11.25;;;7.70;99.90;;;;;;5053131;28;20507;-62
2022/03/13 00:12:34;;;;;;;16.63;11.48;;;8.10;99.90;;;;;;5035655;28;20073;-62
2022/03/13 00:15:09;;;;;;;19.55;11.95;;;8.00;99.90;;;;;;5036244;28;20049;-62
2022/03/13 00:17:35;;;;;;;18.77;12.57;;;;;;;;;;5036385;28;20041;-62
2022/03/13 00:20:04;;;;;;;18.00;11.02;;;8.10;99.90;;;;;;5019009;28;20123;-62
2022/03/13 00:22:31;;;;;;;16.15;11.45;;;8.00;99.90;;;;;;5035931;28;20466;-62
2022/03/13 00:24:59;;;;;;;15.65;10.98;;;8.00;99.90;;;;;;5019839;28;20432;-62
2022/03/13 00:27:25;;;;;;;18.70;11.68;;;;;;;;;;5035384;28;20049;-62
2022/03/13 00:29:51;;;;;;;17.95;11.88;;;8.00;99.90;;;;;;5053727;28;20041;-62
2022/03/13 00:32:17;;;;;;;18.92;11.98;;;8.30;99.90;;;;;;5035902;28;20049;-62
2022/03/13 00:34:43;;;;;;;17.27;11.00;;;8.50;99.90;;;;;;5034638;28;20044;-62
2022/03/13 00:37:09;;;;;;;15.82;11.70;;;7.90;99.90;;;;;;5035829;28;20048;-62
2022/03/13 00:39:38;;;;;;;17.88;11.23;;;8.30;99.90;;;;;;5036252;28;20056;-62
2022/03/13 00:42:04;;;;;;;18.23;11.93;;;8.30;99.90;;;;;;5052582;28;20053;-62
2022/03/13 00:44:30;;;;;;;18.50;12.73;;;;;;;;;;5053601;28;20393;-62
2022/03/13 00:46:55;;;;;;;16.35;11.30;;;7.90;99.90;;;;;;5052856;28;20044;-62
2022/03/13 00:49:21;;;;;;;18.20;12.57;;;8.40;99.90;;;;;;5052625;28;20032;-62
2022/03/13 00:51:46;;;;;;;19.52;12.13;;;8.40;99.90;;;;;;5053257;28;20566;-62
2022/03/13 00:54:13;;;;;;;16.27;11.77;;;8.30;99.90;;;;;;5034984;28;20048;-62
2022/03/13 00:56:39;;;;;;;17.23;11.93;;;8.40;99.90;;;;;;5053576;28;20397;-62
2022/03/13 00:59:04;;;;;;;18.75;12.07;;;8.20;99.90;;;;;;5035463;28;20044;-62
2022/03/13 01:01:30;;;;;;;16.52;11.45;;;8.20;99.90;;;;;;5052601;28;20041;-62
2022/03/13 01:03:56;;;;;;;16.52;11.38;;;8.10;99.90;;;;;;5052337;28;20037;-62
2022/03/13 01:06:22;;;;;;;18.98;10.48;;;8.00;99.90;;;;;;5052647;28;20141;-62
2022/03/13 01:08:49;;;;;;;17.45;11.52;;;8.70;99.90;;;;;;5034410;28;20090;-62
2022/03/13 01:11:20;;;;;;;18.02;11.52;;;8.20;99.90;;;;;;5034322;28;20343;-62
2022/03/13 01:13:47;;;;;;;17.50;11.93;;;8.50;99.90;;;;;;5053099;28;20056;-62
2022/03/13 01:16:19;;;;;;;17.60;11.57;;;8.10;99.90;;;;;;5052379;28;20045;-61
2022/03/13 01:18:57;;;;;;;16.85;11.20;;;8.30;99.90;;;;;;5052430;28;20048;-62
2022/03/13 01:21:23;;;;;;;18.65;12.27;;;8.50;99.90;;;;;;5035093;28;20052;-62
2022/03/13 01:24:01;;;;;;;17.65;11.55;;;8.50;99.90;;;;;;5034266;28;20124;-62
2022/03/13 01:26:34;;;;;;;17.77;12.38;;;8.60;99.90;;;;;;5052771;28;20099;-62
2022/03/13 01:29:02;;;;;;;18.42;12.68;;;8.00;99.90;;;;;;5034627;28;20049;-62
2022/03/13 01:31:30;;;;;;;19.67;13.55;;;8.60;99.90;;;;;;5052509;28;20367;-62
2022/03/13 01:33:57;;;;;;;19.92;12.65;;;8.30;99.90;;;;;;5051645;28;20555;-62
2022/03/13 01:36:22;;;;;;;18.17;12.52;;;8.50;99.90;;;;;;5017628;28;20045;-62
2022/03/13 01:38:52;;;;;;;16.63;11.88;;;8.00;99.90;;;;;;5052303;28;20048;-62
2022/03/13 01:41:17;;;;;;;16.73;11.52;;;8.50;99.90;;;;;;5052247;28;20052;-62
2022/03/13 01:43:43;;;;;;;17.73;12.27;;;8.80;99.90;;;;;;5051665;28;20048;-62
2022/03/13 01:46:09;;;;;;;18.75;13.00;;;8.50;99.90;;;;;;5017599;28;20041;-62
2022/03/13 01:48:50;;;;;;;19.05;12.27;;;8.50;99.90;;;;;;5034053;28;20043;-62
2022/03/13 01:51:16;;;;;;;19.00;12.52;;;;;;;;;;5034073;28;20457;-62
2022/03/13 01:53:42;;;;;;;17.00;12.25;;;8.80;99.90;;;;;;5034085;28;20056;-62
2022/03/13 01:56:08;;;;;;;20.05;12.38;;;8.00;99.90;;;;;;5052016;28;20049;-62
2022/03/13 01:58:34;;;;;;;19.88;12.82;;;8.60;99.90;;;;;;5052099;28;20037;-62
2022/03/13 02:01:01;;;;;;;20.05;12.38;;;8.50;99.90;;;;;;5033871;28;20048;-62
2022/03/13 02:03:27;;;;;;;20.58;13.50;;;8.50;99.90;;;;;;5034004;28;20071;-62
2022/03/13 02:05:53;;;;;;;19.17;12.60;;;9.00;99.90;;;;;;5017058;28;20041;-62
2022/03/13 02:08:21;;;;;;;18.70;12.63;;;8.70;99.90;;;;;;5052049;28;20548;-62
2022/03/13 02:10:47;;;;;;;17.60;12.80;;;8.30;99.90;;;;;;5051497;28;20122;-62
2022/03/13 02:13:17;;;;;;;19.90;12.68;;;8.60;99.90;;;;;;5051141;28;20076;-62
2022/03/13 02:15:42;;;;;;;18.80;12.85;;;8.60;99.90;;;;;;5051816;28;20041;-62
2022/03/13 02:18:08;;;;;;;19.13;13.35;;;8.00;99.90;;;;;;5032746;28;20040;-62
2022/03/13 02:20:43;;;;;;;23.00;13.50;;;9.20;99.90;;;;;;5033357;28;20052;-62
2022/03/13 02:23:26;;;;;;;18.00;12.55;;;8.50;99.90;;;;;;5034382;28;20041;-62
2022/03/13 02:25:57;;;;;;;17.20;11.18;;;8.40;99.90;;;;;;5033479;28;20048;-62
2022/03/13 02:28:25;;;;;;;19.50;13.20;;;8.30;99.90;;;;;;5015529;28;20036;-62
2022/03/13 02:30:53;;;;;;;17.42;13.00;;;8.50;99.90;;;;;;5033781;28;20048;-62
2022/03/13 02:33:22;;;;;;;20.05;12.88;;;8.50;99.90;;;;;;5017195;28;20493;-62
2022/03/13 02:35:59;;;;;;;20.92;13.55;;;8.40;99.90;;;;;;5016818;28;20482;-62
2022/03/13 02:38:26;;;;;;;21.27;14.00;;;8.40;99.90;;;;;;5017179;28;20091;-62
2022/03/13 02:40:53;;;;;;;23.30;14.38;;;8.60;99.90;;;;;;5033047;28;20057;-62
2022/03/13 02:43:19;;;;;;;25.27;14.10;;;8.60;99.90;;;;;;5033874;28;20052;-62
2022/03/13 02:45:45;;;;;;;21.60;14.30;;;8.30;99.90;;;;;;5033943;28;20041;-62
2022/03/13 02:48:12;;;;;;;21.60;14.15;;;8.30;99.90;;;;;;5032770;28;20080;-62
2022/03/13 02:50:39;;;;;;;27.08;14.07;;;8.60;99.90;;;;;;5034028;28;20057;-62
2022/03/13 02:53:05;;;;;;;22.33;14.27;;;8.50;99.90;;;;;;5033891;28;20445;-62
2022/03/13 02:55:31;;;;;;;25.50;16.10;;;8.40;99.90;;;;;;5016539;28;20098;-62
2022/03/13 02:57:58;;;;;;;24.80;14.65;;;;;;;;;;5033669;28;20044;-62
2022/03/13 03:00:40;;;;;;;23.90;13.50;;;8.40;99.90;;;;;;5033531;28;20041;-62
2022/03/13 03:03:06;;;;;;;18.83;12.35;;;8.30;99.90;;;;;;5051542;28;20474;-62
2022/03/13 03:05:32;;;;;;;17.73;11.80;;;8.50;99.90;;;;;;5034104;28;20037;-62
2022/03/13 03:07:57;;;;;;;19.15;12.05;;;8.40;99.90;;;;;;5016409;28;20049;-62
2022/03/13 03:10:23;;;;;;;20.40;12.50;;;8.40;99.90;;;;;;5033601;28;20398;-62
2022/03/13 03:12:48;;;;;;;19.30;12.55;;;8.50;99.90;;;;;;5051360;28;20069;-62
2022/03/13 03:15:18;;;;;;;21.08;12.38;;;8.40;99.90;;;;;;5033334;28;20394;-62
2022/03/13 03:17:44;;;;;;;18.10;13.35;;;8.40;99.90;;;;;;5051426;28;20037;-62
2022/03/13 03:20:11;;;;;;;21.67;13.10;;;8.50;99.90;;;;;;5033254;28;20033;-62
2022/03/13 03:22:37;;;;;;;18.02;12.23;;;8.70;99.90;;;;;;5051104;28;20068;-62
2022/03/13 03:25:04;;;;;;;19.33;12.43;;;8.10;99.90;;;;;;5051629;28;20077;-62
2022/03/13 03:27:31;;;;;;;20.00;13.55;;;;;;;;;;5032909;28;20033;-62
2022/03/13 03:30:00;;;;;;;18.88;12.57;;;8.40;99.90;;;;;;5018728;28;20033;-62
2022/03/13 03:32:26;;;;;;;20.00;12.48;;;8.60;99.90;;;;;;5036329;28;20048;-62
2022/03/13 03:34:53;;;;;;;20.40;13.55;;;8.40;99.90;;;;;;5037114;28;20141;-62
2022/03/13 03:37:19;;;;;;;17.88;11.90;;;8.20;99.90;;;;;;5035860;28;20040;-62
2022/03/13 03:39:44;;;;;;;19.27;13.30;;;8.60;99.90;;;;;;5037070;28;20116;-62
2022/03/13 03:42:10;;;;;;;17.52;12.43;;;8.00;99.90;;;;;;5035568;28;20044;-62
2022/03/13 03:44:35;;;;;;;17.33;12.18;;;8.30;99.90;;;;;;5054087;28;20033;-62
2022/03/13 03:47:01;;;;;;;17.58;11.50;;;8.50;99.90;;;;;;5036646;28;20037;-62
2022/03/13 03:49:27;;;;;;;18.23;12.10;;;8.60;99.90;;;;;;5024092;28;20049;-62
2022/03/13 03:51:53;;;;;;;19.40;13.00;;;8.80;99.90;;;;;;5016033;28;20394;-62
2022/03/13 03:54:19;;;;;;;18.23;12.85;;;8.60;99.90;;;;;;5016932;28;20038;-62
2022/03/13 03:56:45;;;;;;;17.90;11.73;;;;;;;;;;5016436;28;20040;-62
2022/03/13 03:59:11;;;;;;;19.15;12.55;;;8.20;99.90;;;;;;5016516;28;20045;-62
2022/03/13 04:01:42;;;;;;;17.63;11.73;;;8.40;99.90;;;;;;5034856;28;20034;-62
2022/03/13 04:04:09;;;;;;;18.02;12.55;;;8.80;99.90;;;;;;5044797;28;20045;-62
2022/03/13 04:06:40;;;;;;;17.90;12.20;;;8.60;99.90;;;;;;5036424;28;20037;-62
2022/03/13 04:09:11;;;;;;;18.17;12.63;;;8.60;99.90;;;;;;5054488;28;20405;-62
2022/03/13 04:11:37;;;;;;;17.15;11.60;;;8.70;99.90;;;;;;5036045;28;20431;-62
2022/03/13 04:14:03;;;;;;;16.98;11.40;;;8.60;99.90;;;;;;5036433;28;20051;-62
2022/03/13 04:16:29;;;;;;;17.00;12.10;;;8.60;99.90;;;;;;5020991;28;20037;-62
2022/03/13 04:18:55;;;;;;;16.70;10.50;;;8.50;99.90;;;;;;5048370;28;20053;-62
2022/03/13 04:21:22;;;;;;;14.93;10.48;;;8.10;99.90;;;;;;5032571;28;20045;-62
2022/03/13 04:23:48;;;;;;;15.00;11.32;;;;;;;;;;5033990;28;20500;-62
2022/03/13 04:26:15;;;;;;;15.70;11.25;;;8.00;99.90;;;;;;5015169;28;20049;-62
2022/03/13 04:28:41;;;;;;;16.73;11.15;;;8.30;99.90;;;;;;5016228;28;20041;-62
2022/03/13 04:31:08;;;;;;;18.13;11.68;;;8.60;99.90;;;;;;5016256;28;20046;-62
2022/03/13 04:33:35;;;;;;;18.45;11.18;;;8.50;99.90;;;;;;5039413;28;20033;-62
2022/03/13 04:36:11;;;;;;;19.25;11.60;;;8.60;99.90;;;;;;5019716;28;20511;-62
2022/03/13 04:38:37;;;;;;;16.38;10.90;;;8.20;99.90;;;;;;5019731;28;20121;-62
2022/03/13 04:41:02;;;;;;;16.92;11.02;;;8.40;99.90;;;;;;5033882;28;20140;-62
2022/03/13 04:43:28;;;;;;;16.80;11.57;;;8.70;99.90;;;;;;5053563;28;20037;-62
2022/03/13 04:45:54;;;;;;;16.45;11.20;;;8.20;99.90;;;;;;5053633;28;20111;-62
2022/03/13 04:48:20;;;;;;;19.30;12.30;;;8.30;99.90;;;;;;5027869;28;20489;-62
2022/03/13 04:50:47;;;;;;;16.40;11.93;;;8.20;99.90;;;;;;5033540;28;20041;-62
2022/03/13 04:53:13;;;;;;;20.58;14.00;;;7.60;99.90;;;;;;5048195;28;20041;-62
2022/03/13 04:55:39;;;;;;;19.70;12.82;;;8.10;99.90;;;;;;5032254;28;20136;-62
2022/03/13 04:58:05;;;;;;;18.35;13.10;;;8.10;99.90;;;;;;5033777;28;20116;-62
2022/03/13 05:00:31;;;;;;;18.88;13.60;;;8.00;99.90;;;;;;5032858;28;20085;-62
2022/03/13 05:02:56;;;;;;;21.83;14.00;;;7.70;99.90;;;;;;5020320;28;20051;-62
2022/03/13 05:05:23;;;;;;;20.63;13.00;;;8.50;99.90;;;;;;5053204;28;20382;-62
2022/03/13 05:07:49;;;;;;;20.30;13.82;;;7.70;99.90;;;;;;5034684;28;20439;-62
2022/03/13 05:10:18;;;;;;;19.55;12.68;;;7.70;99.90;;;;;;5034858;28;20045;-62
2022/03/13 05:12:44;;;;;;;19.17;13.95;;;8.10;99.90;;;;;;5052962;28;20162;-62
2022/03/13 05:15:10;;;;;;;17.17;13.32;;;8.10;99.90;;;;;;5018035;28;20040;-62
2022/03/13 05:17:36;;;;;;;20.10;13.68;;;8.30;99.90;;;;;;5029818;28;20390;-62
2022/03/13 05:20:02;;;;;;;20.67;12.82;;;7.80;99.90;;;;;;5029136;28;20052;-62
2022/03/13 05:22:28;;;;;;;19.40;13.00;;;7.70;99.90;;;;;;5033925;28;20103;-62
2022/03/13 05:24:54;;;;;;;20.27;13.20;;;7.50;99.90;;;;;;5034892;28;20068;-62
2022/03/13 05:27:20;;;;;;;26.38;15.00;;;7.40;99.90;;;;;;5034618;28;20044;-62
2022/03/13 05:29:46;;;;;;;20.45;14.20;;;7.90;99.90;;;;;;5017777;28;20103;-62
2022/03/13 05:32:12;;;;;;;19.90;14.25;;;7.80;99.90;;;;;;5052749;28;20039;-62
2022/03/13 05:34:38;;;;;;;21.73;14.82;;;7.20;99.90;;;;;;5004337;28;20136;-62
2022/03/13 05:37:04;;;;;;;18.85;14.38;;;8.10;99.90;;;;;;5030764;28;20116;-62
2022/03/13 05:39:29;;;;;;;19.33;12.68;;;7.50;99.90;;;;;;5032676;28;20037;-62
2022/03/13 05:41:56;;;;;;;22.70;13.50;;;7.60;99.90;;;;;;5022866;28;20564;-62
2022/03/13 05:44:22;;;;;;;19.20;13.35;;;8.00;99.90;;;;;;5030864;28;20071;-62
2022/03/13 05:46:48;;;;;;;19.23;13.35;;;7.30;99.90;;;;;;5031460;28;20049;-62
2022/03/13 05:49:13;;;;;;;18.90;13.10;;;7.20;99.90;;;;;;5030666;28;20513;-62
2022/03/13 05:51:41;;;;;;;21.85;14.32;;;7.80;99.90;;;;;;5030868;28;20060;-62
2022/03/13 05:54:07;;;;;;;24.15;14.02;;;7.80;99.90;;;;;;5031044;28;20534;-62
2022/03/13 05:56:33;;;;;;;19.70;13.82;;;7.60;99.90;;;;;;5030424;28;20132;-62
2022/03/13 05:58:58;;;;;;;19.90;12.82;;;7.90;99.90;;;;;;5030929;28;20041;-62
2022/03/13 06:01:24;;;;;;;20.27;13.73;;;7.80;99.90;;;;;;5032249;28;20363;-62
2022/03/13 06:03:50;;;;;;;19.80;13.68;;;7.30;99.90;;;;;;5030495;28;20534;-62
2022/03/13 06:06:15;;;;;;;18.90;12.98;;;8.00;99.90;;;;;;5031849;28;20038;-62
2022/03/13 06:08:41;;;;;;;21.45;14.75;;;7.30;99.90;;;;;;5030351;28;20034;-62
2022/03/13 06:11:08;;;;;;;19.70;13.57;;;7.50;99.90;;;;;;5030375;28;20046;-62
2022/03/13 06:13:34;;;;;;;19.25;14.25;;;7.90;99.90;;;;;;5030957;28;20061;-62
2022/03/13 06:16:00;;;;;;;18.27;12.60;;;7.90;99.90;;;;;;5030947;28;20049;-62
2022/03/13 06:18:27;;;;;;;20.85;14.10;;;7.70;99.90;;;;;;5012571;28;20049;-62
2022/03/13 06:20:53;;;;;;;19.52;13.63;;;7.20;99.90;;;;;;5029742;28;20113;-61
2022/03/13 06:23:20;;;;;;;21.02;13.43;;;7.50;99.90;;;;;;5030870;28;20073;-62
2022/03/13 06:25:46;;;;;;;20.45;13.60;;;8.20;99.90;;;;;;5030291;28;20049;-61
2022/03/13 06:28:12;;;;;;;20.98;13.45;;;7.60;99.90;;;;;;5030781;28;20041;-62
2022/03/13 06:30:38;;;;;;;20.80;13.95;;;7.60;99.90;;;;;;5030761;28;20095;-62
2022/03/13 06:33:04;;;;;;;19.20;13.02;;;7.50;99.90;;;;;;5031105;28;20041;-62
2022/03/13 06:35:30;;;;;;;20.23;14.43;;;7.20;99.90;;;;;;5035475;28;20043;-62
2022/03/13 06:37:56;;;;;;;20.00;13.27;;;7.50;99.90;;;;;;5035444;28;20042;-62
2022/03/13 06:40:24;;;;;;;18.13;13.32;;;7.80;99.90;;;;;;5033605;28;20045;-62
2022/03/13 06:42:53;;;;;;;19.58;12.80;;;7.60;99.90;;;;;;5050166;28;20060;-62
2022/03/13 06:45:19;;;;;;;21.38;15.02;;;;;;;;;;5048185;28;20136;-62
2022/03/13 06:47:47;;;;;;;91.63;44.78;;;7.50;99.90;;;;;;5010646;28;20049;-62
2022/03/13 06:50:14;;;;;;;24.70;14.55;;;7.50;99.90;;;;;;5011585;28;20041;-62
2022/03/13 06:52:41;;;;;;;21.08;15.95;;;;;;;;;;5011130;28;20045;-62
2022/03/13 06:55:07;;;;;;;50.42;30.67;;;;;;;;;;5011468;28;20046;-62
2022/03/13 06:57:33;;;;;;;22.15;15.13;;;;;;;;;;5024664;28;20083;-62
2022/03/13 07:00:00;;;;;;;19.80;14.77;;;;;;;;;;5029904;28;20040;-62
2022/03/13 07:02:26;;;;;;;26.90;17.75;;;;;;;;;;5048851;28;20059;-62
2022/03/13 07:04:52;;;;;;;20.92;13.52;;;7.30;99.90;;;;;;5032676;28;20813;-62
2022/03/13 07:07:18;;;;;;;19.45;13.48;;;7.30;99.90;;;;;;5034623;28;20045;-62
2022/03/13 07:09:43;;;;;;;20.63;13.00;;;;;;;;;;5033452;28;20032;-62
2022/03/13 07:12:12;;;;;;;19.75;13.68;;;;;;;;;;5034492;28;20045;-62
2022/03/13 07:14:46;;;;;;;21.30;13.15;;;7.70;99.90;;;;;;5051884;28;20045;-62
2022/03/13 07:17:12;;;;;;;18.80;13.05;;;7.30;99.90;;;;;;5034413;28;20099;-62
2022/03/13 07:19:40;;;;;;;19.80;11.48;;;;;;;;;;5034868;28;20053;-62
2022/03/13 07:22:07;;;;;;;19.95;13.38;;;;;;;;;;5050929;28;20084;-62
2022/03/13 07:24:33;;;;;;;21.10;12.80;;;;;;;;;;5029598;28;20474;-62
2022/03/13 07:26:59;;;;;;;20.50;13.57;;;;;;;;;;5034429;28;20052;-62
2022/03/13 07:29:25;;;;;;;19.55;13.88;;;;;;;;;;5051554;28;20045;-62
2022/03/13 07:31:52;;;;;;;18.42;12.43;;;7.40;99.90;;;;;;5033943;28;20128;-62
2022/03/13 07:34:18;;;;;;;19.30;13.45;;;;;;;;;;5033113;28;20502;-62
2022/03/13 07:36:44;;;;;;;18.50;11.45;;;;;;;;;;5032369;28;20079;-62
2022/03/13 07:39:10;;;;;;;17.23;12.52;;;;;;;;;;5033613;28;20080;-62
2022/03/13 07:41:36;;;;;;;18.02;12.30;;;;;;;;;;5050948;28;20141;-62
2022/03/13 07:44:04;;;;;;;17.35;12.50;;;;;;;;;;5049630;28;20044;-62
2022/03/13 07:46:30;;;;;;;18.23;12.75;;;;;;;;;;5031456;28;20486;-62
2022/03/13 07:48:56;;;;;;;17.77;11.93;;;;;;;;;;5032944;28;20072;-63
2022/03/13 07:51:21;;;;;;;18.27;11.43;;;7.60;99.90;;;;;;5051195;28;20162;-62
2022/03/13 07:53:47;;;;;;;17.50;11.65;;;;;;;;;;5032567;28;20053;-62
2022/03/13 07:56:15;;;;;;;17.52;12.00;;;;;;;;;;5050678;28;20094;-63
2022/03/13 07:58:41;;;;;;;17.40;12.35;;;;;;;;;;5031496;28;20562;-62
2022/03/13 08:01:07;;;;;;;17.20;11.23;;;;;;;;;;5033409;28;20517;-64
2022/03/13 08:03:36;;;;;;;19.38;11.75;;;;;;;;;;5050887;28;20450;-64
2022/03/13 08:06:03;;;;;;;15.07;10.75;;;8.30;99.90;;;;;;5032818;28;20406;-63
2022/03/13 08:08:29;;;;;;;18.65;11.82;;;;;;;;;;5050526;28;20029;-63
2022/03/13 08:10:55;;;;;;;18.77;11.30;;;8.10;99.90;;;;;;5032371;28;20106;-63
2022/03/13 08:13:22;;;;;;;19.05;10.93;;;;;;;;;;5028926;28;20028;-63
2022/03/13 08:15:48;;;;;;;17.42;11.02;;;;;;;;;;5032056;28;20052;-63
2022/03/13 08:18:14;;;;;;;19.48;11.98;;;;;;;;;;5031870;28;20048;-63
2022/03/13 08:20:40;;;;;;;26.58;18.13;;;;;;;;;;5034245;28;20056;-63
2022/03/13 08:23:06;;;;;;;20.63;11.02;;;8.50;99.90;;;;;;5033233;28;20191;-63
2022/03/13 08:25:32;;;;;;;18.42;11.82;;;;;;;;;;5030493;28;20128;-63
2022/03/13 08:27:58;;;;;;;15.98;11.02;;;;;;;;;;5033186;28;20067;-62
2022/03/13 08:30:24;;;;;;;16.20;11.32;;;8.30;99.90;;;;;;5033647;28;20033;-63
2022/03/13 08:32:50;;;;;;;16.23;11.10;;;8.10;99.90;;;;;;5032876;28;20514;-63
2022/03/13 08:35:17;;;;;;;15.55;10.73;;;;;;;;;;5049644;28;20529;-63
2022/03/13 08:37:43;;;;;;;17.83;12.68;;;8.40;99.90;;;;;;5020706;28;20124;-63
2022/03/13 08:40:10;;;;;;;16.85;10.57;;;8.60;99.90;;;;;;5031792;28;20199;-63
2022/03/13 08:42:36;;;;;;;16.00;10.90;;;9.20;99.90;;;;;;5028990;28;20529;-63
2022/03/13 08:45:01;;;;;;;16.17;10.45;;;9.00;99.90;;;;;;5029041;28;20052;-63
2022/03/13 08:47:27;;;;;;;17.75;11.77;;;;;;;;;;5025211;28;20073;-63
2022/03/13 08:49:54;;;;;;;18.25;10.57;;;8.70;99.90;;;;;;5012737;28;20050;-63
2022/03/13 08:52:20;;;;;;;18.75;11.23;;;;;;;;;;5028418;28;20494;-63
2022/03/13 08:54:46;;;;;;;17.52;10.80;;;9.20;99.90;;;;;;5028658;28;20092;-63
2022/03/13 08:57:13;;;;;;;16.33;11.52;;;;;;;;;;5012011;28;20049;-63
2022/03/13 08:59:39;;;;;;;15.40;10.88;;;;;;;;;;5029984;28;20510;-63
2022/03/13 09:02:05;;;;;;;14.20;10.50;;;9.10;99.90;;;;;;5029007;28;20111;-63
2022/03/13 09:04:32;;;;;;;15.38;10.57;;;9.30;99.90;;;;;;5028460;28;20041;-63
2022/03/13 09:06:58;;;;;;;16.17;10.60;;;9.20;99.90;;;;;;5024414;28;20390;-65
2022/03/13 09:09:24;;;;;;;15.35;11.02;;;9.30;99.90;;;;;;5032827;28;20034;-64
2022/03/13 09:11:53;;;;;;;14.13;9.93;;;9.40;99.90;;;;;;5031629;28;20462;-63
2022/03/13 09:14:20;;;;;;;15.85;10.77;;;9.80;99.90;;;;;;5032637;28;20116;-64
2022/03/13 09:16:46;;;;;;;16.15;10.45;;;9.80;99.90;;;;;;5031923;28;20049;-64
2022/03/13 09:19:12;;;;;;;15.35;9.93;;;10.00;99.90;;;;;;5031679;28;20512;-64
2022/03/13 09:21:38;;;;;;;14.43;9.27;;;9.60;99.90;;;;;;5031123;28;20490;-63
2022/03/13 09:24:09;;;;;;;15.35;10.13;;;9.90;99.90;;;;;;5031632;28;20041;-64
2022/03/13 09:26:39;;;;;;;16.83;11.02;;;10.40;99.90;;;;;;5031607;28;20197;-64
2022/03/13 09:29:05;;;;;;;17.15;10.60;;;11.00;99.90;;;;;;5031299;28;20060;-64
2022/03/13 09:31:31;;;;;;;19.05;10.90;;;9.80;99.90;;;;;;5031648;28;20099;-63
2022/03/13 09:33:57;;;;;;;14.68;9.93;;;10.20;99.90;;;;;;5031563;28;20056;-63
2022/03/13 09:36:24;;;;;;;17.75;11.45;;;10.40;99.90;;;;;;5030639;28;20037;-64
2022/03/13 09:38:50;;;;;;;16.67;11.15;;;12.40;99.90;;;;;;5032631;28;20049;-64
2022/03/13 09:41:16;;;;;;;16.95;10.13;;;10.60;99.90;;;;;;5034847;28;20053;-64
2022/03/13 09:43:42;;;;;;;16.90;11.68;;;10.90;99.90;;;;;;5017334;28;20041;-64
2022/03/13 09:46:08;;;;;;;16.40;11.02;;;;;;;;;;5034372;28;20132;-63
2022/03/13 09:48:37;;;;;;;15.43;9.60;;;10.80;99.90;;;;;;5052266;28;20037;-64
2022/03/13 09:51:04;;;;;;;16.27;12.18;;;11.00;99.90;;;;;;5034295;28;20147;-64
2022/03/13 09:53:34;;;;;;;20.58;12.18;;;11.30;99.90;;;;;;5034523;28;20477;-63
2022/03/13 09:56:01;;;;;;;21.38;12.23;;;11.40;99.90;;;;;;5017318;28;20052;-64
2022/03/13 09:58:28;;;;;;;16.40;10.23;;;11.50;99.90;;;;;;5034364;28;20048;-64
2022/03/13 10:00:54;;;;;;;16.80;11.15;;;11.70;99.90;;;;;;5017850;28;20048;-64
2022/03/13 10:03:19;;;;;;;16.55;11.32;;;11.70;99.90;;;;;;5033721;28;20041;-64
2022/03/13 10:05:50;;;;;;;16.50;11.77;;;11.70;99.90;;;;;;5052217;28;20045;-64
2022/03/13 10:08:17;;;;;;;16.73;11.68;;;12.20;99.90;;;;;;5052366;28;20037;-64
2022/03/13 10:10:44;;;;;;;15.68;11.27;;;12.20;99.90;;;;;;5033474;28;20170;-64
2022/03/13 10:13:13;;;;;;;15.95;11.32;;;12.20;99.90;;;;;;5034183;28;20405;-64
2022/03/13 10:15:50;;;;;;;20.92;12.70;;;;;;;;;;5034952;28;20049;-63
2022/03/13 10:18:20;;;;;;;16.55;10.65;;;;;;;;;;5033266;28;20041;-63
2022/03/13 10:20:48;;;;;;;19.10;11.48;;;12.00;99.90;;;;;;5034097;28;20045;-64
2022/03/13 10:23:19;;;;;;;17.25;11.40;;;12.20;99.90;;;;;;5051957;28;20041;-64
2022/03/13 10:25:50;;;;;;;16.42;11.63;;;12.40;99.90;;;;;;5033295;28;20040;-64
2022/03/13 10:28:20;;;;;;;16.02;11.10;;;12.60;99.90;;;;;;5051839;28;20048;-64
2022/03/13 10:31:07;;;;;;;14.98;10.68;;;12.60;99.90;;;;;;5051274;28;20128;-64
2022/03/13 10:33:42;;;;;;;16.27;10.70;;;13.00;97.20;;;;;;5033959;28;20178;-64
2022/03/13 10:36:17;;;;;;;15.25;10.27;;;13.00;99.90;;;;;;5034099;28;20049;-64
2022/03/13 10:38:44;;;;;;;17.98;10.90;;;13.00;99.90;;;;;;5033823;28;20047;-64
2022/03/13 10:41:12;;;;;;;16.75;11.65;;;;;;;;;;5055578;28;20102;-64
2022/03/13 10:43:58;;;;;;;14.40;10.18;;;12.80;92.70;;;;;;5056255;28;20478;-64
2022/03/13 10:46:29;;;;;;;18.85;12.95;;;13.00;99.90;;;;;;5053534;28;20053;-64
2022/03/13 10:48:56;;;;;;;15.02;10.45;;;12.80;99.90;;;;;;5037942;28;20040;-64
2022/03/13 10:51:35;;;;;;;15.25;10.88;;;12.70;99.90;;;;;;5055775;28;20047;-64
2022/03/13 10:54:02;;;;;;;16.35;11.68;;;14.60;92.30;;;;;;5037015;28;20508;-64
2022/03/13 10:56:28;;;;;;;17.77;11.13;;;13.60;99.90;;;;;;5055577;28;20516;-64
2022/03/13 10:58:53;;;;;;;18.85;12.05;;;13.70;99.90;;;;;;5055007;28;20029;-63
2022/03/13 11:01:22;;;;;;;18.20;11.25;;;14.10;99.90;;;;;;5055173;28;20393;-64
2022/03/13 11:03:55;;;;;;;17.02;10.93;;;14.50;94.20;;;;;;5037576;28;20052;-63
2022/03/13 11:06:25;;;;;;;15.57;11.77;;;14.60;92.90;;;;;;5020349;28;20080;-64
2022/03/13 11:08:55;;;;;;;16.70;10.85;;;13.10;99.90;;;;;;5055590;28;20420;-64
2022/03/13 11:11:27;;;;;;;17.27;11.45;;;13.40;99.90;;;;;;5037479;28;20098;-64
2022/03/13 11:13:59;;;;;;;19.77;11.18;;;13.70;99.90;;;;;;5054430;28;20044;-64
2022/03/13 11:16:32;;;;;;;21.75;13.23;;;13.40;99.90;;;;;;5037463;28;20044;-64
2022/03/13 11:19:04;;;;;;;20.15;12.45;;;13.70;99.90;;;;;;5055435;28;20047;-64
2022/03/13 11:21:32;;;;;;;18.08;12.30;;;13.60;88.20;;;;;;5054259;28;20045;-64
2022/03/13 11:24:00;;;;;;;17.92;12.38;;;13.80;99.90;;;;;;5037264;28;20520;-64
2022/03/13 11:26:29;;;;;;;17.33;11.85;;;13.60;99.90;;;;;;5037165;28;20041;-64
2022/03/13 11:28:55;;;;;;;17.92;12.13;;;13.70;99.90;;;;;;5036755;28;20505;-64
2022/03/13 11:31:33;;;;;;;15.75;11.82;;;13.80;99.90;;;;;;5037150;28;20059;-64
2022/03/13 11:34:21;;;;;;;18.80;12.52;;;13.90;99.90;;;;;;5036540;28;20056;-64
2022/03/13 11:36:51;;;;;;;16.58;11.52;;;13.80;99.90;;;;;;5037292;28;20067;-64
2022/03/13 11:39:31;;;;;;;18.75;12.18;;;14.50;99.90;;;;;;5037277;28;20048;-64
2022/03/13 11:41:58;;;;;;;16.45;11.52;;;14.50;99.40;;;;;;5035830;28;20058;-64
2022/03/13 11:44:23;;;;;;;16.77;12.43;;;13.90;99.90;;;;;;5036951;28;20116;-64
2022/03/13 11:46:51;;;;;;;17.58;12.55;;;14.20;99.90;;;;;;5054780;28;20179;-64
2022/03/13 11:49:25;;;;;;;18.25;12.88;;;13.80;99.90;;;;;;5019479;28;20424;-64
2022/03/13 11:52:10;;;;;;;19.48;13.38;;;14.20;99.90;;;;;;5020304;28;20049;-64
2022/03/13 11:54:57;;;;;;;18.08;12.18;;;14.00;86.40;;;;;;5054881;28;20445;-64
2022/03/13 11:57:29;;;;;;;19.95;11.57;;;15.40;92.20;;;;;;5035931;28;20094;-64
2022/03/13 12:00:12;;;;;;;17.52;12.52;;;14.90;99.90;;;;;;5036515;28;20049;-64
2022/03/13 12:02:41;;;;;;;17.30;12.30;;;14.40;99.80;;;;;;5035991;28;20128;-63
2022/03/13 12:05:28;;;;;;;17.02;12.88;;;15.30;99.90;;;;;;5036569;28;20044;-63
2022/03/13 12:07:54;;;;;;;18.83;11.88;;;14.60;94.90;;;;;;5019955;28;20485;-63
2022/03/13 12:10:41;;;;;;;20.48;12.38;;;15.30;99.90;;;;;;5036113;28;20049;-64
2022/03/13 12:13:15;;;;;;;18.65;13.70;;;14.40;86.50;;;;;;5036660;28;20052;-64
2022/03/13 12:15:42;;;;;;;13.77;10.77;;;15.60;99.90;;;;;;5036445;28;20037;-64
2022/03/13 12:18:17;;;;;;;16.75;11.77;;;15.10;99.90;;;;;;5053213;28;20485;-64
2022/03/13 12:20:43;;;;;;;;;;;14.80;90.90;;;;;;5036762;28;20393;-63
2022/03/13 12:23:09;;;;;;;18.48;12.60;;;;;;;;;;5035790;28;19951;-64
2022/03/13 12:25:36;;;;;;;18.63;13.32;;;;;;;;;;5053777;28;20477;-64
2022/03/13 12:28:02;;;;;;;15.73;12.00;;;14.80;99.90;;;;;;5036352;28;20115;-64
2022/03/13 12:30:34;;;;;;;17.55;11.73;;;14.50;99.90;;;;;;5053131;28;20847;-64
2022/03/13 12:33:05;;;;;;;15.38;10.68;;;14.50;99.90;;;;;;5054085;28;20052;-64
2022/03/13 12:35:32;;;;;;;16.35;11.40;;;;;;;;;;5053744;28;20033;-64
2022/03/13 12:38:02;;;;;;;18.45;11.93;;;14.70;91.30;;;;;;5052706;28;20394;-64
2022/03/13 12:40:30;;;;;;;16.80;12.00;;;14.80;93.20;;;;;;5036079;28;20083;-64
2022/03/13 12:42:59;;;;;;;16.58;11.43;;;14.70;94.10;;;;;;5053823;28;20052;-64
2022/03/13 12:45:26;;;;;;;17.55;12.32;;;14.80;92.60;;;;;;5052867;28;20045;-64
2022/03/13 12:47:55;;;;;;;16.73;12.35;;;14.80;94.50;;;;;;5053487;28;20079;-64
2022/03/13 12:50:29;;;;;;;17.75;11.93;;;14.80;94.10;;;;;;5035941;28;20037;-64
2022/03/13 12:52:55;;;;;;;16.73;11.63;;;;;;;;;;5035163;28;20045;-64